sensor_id;sensor_type;location;lat;lon;timestamp;P1;durP1;ratioP1;P2;durP2;ratioP2
60014;SDS011;45867;52.480;6.056;2022-10-16T00:00:41;11.30;;;2.17;;
60014;SDS011;45867;52.480;6.056;2022-10-16T00:03:07;7.07;;;2.25;;
60014;SDS011;45867;52.480;6.056;2022-10-16T00:05:37;6.10;;;2.13;;
60014;SDS011;45867;52.480;6.056;2022-10-16T00:08:06;9.23;;;2.20;;
60014;SDS011;45867;52.480;6.056;2022-10-16T00:10:33;8.48;;;2.20;;
60014;SDS011;45867;52.480;6.056;2022-10-16T00:12:59;9.85;;;2.30;;
60014;SDS011;45867;52.480;6.056;2022-10-16T00:15:26;5.60;;;2.10;;
60014;SDS011;45867;52.480;6.056;2022-10-16T00:17:51;10.82;;;2.05;;
60014;SDS011;45867;52.480;6.056;2022-10-16T00:20:17;4.72;;;2.08;;
60014;SDS011;45867;52.480;6.056;2022-10-16T00:22:42;5.55;;;2.13;;
60014;SDS011;45867;52.480;6.056;2022-10-16T00:25:08;4.40;;;2.10;;
60014;SDS011;45867;52.480;6.056;2022-10-16T00:27:34;6.53;;;2.20;;
60014;SDS011;45867;52.480;6.056;2022-10-16T00:29:59;6.05;;;2.55;;
60014;SDS011;45867;52.480;6.056;2022-10-16T00:32:25;8.95;;;2.63;;
60014;SDS011;45867;52.480;6.056;2022-10-16T00:34:50;3.50;;;1.90;;
60014;SDS011;45867;52.480;6.056;2022-10-16T00:37:16;6.28;;;2.20;;
60014;SDS011;45867;52.480;6.056;2022-10-16T00:39:41;7.47;;;2.15;;
60014;SDS011;45867;52.480;6.056;2022-10-16T00:42:09;6.88;;;2.17;;
60014;SDS011;45867;52.480;6.056;2022-10-16T00:47:40;9.23;;;2.13;;
60014;SDS011;45867;52.480;6.056;2022-10-16T00:50:15;5.07;;;2.08;;
60014;SDS011;45867;52.480;6.056;2022-10-16T00:52:42;3.35;;;1.90;;
60014;SDS011;45867;52.480;6.056;2022-10-16T00:55:13;6.35;;;2.28;;
60014;SDS011;45867;52.480;6.056;2022-10-16T00:57:40;6.93;;;2.28;;
60014;SDS011;45867;52.480;6.056;2022-10-16T01:00:09;8.43;;;2.40;;
60014;SDS011;45867;52.480;6.056;2022-10-16T01:02:36;6.60;;;2.20;;
60014;SDS011;45867;52.480;6.056;2022-10-16T01:05:02;11.07;;;2.30;;
60014;SDS011;45867;52.480;6.056;2022-10-16T01:12:58;6.47;;;2.28;;
60014;SDS011;45867;52.480;6.056;2022-10-16T01:15:52;6.47;;;2.45;;
60014;SDS011;45867;52.480;6.056;2022-10-16T01:18:39;5.03;;;2.28;;
60014;SDS011;45867;52.480;6.056;2022-10-16T01:21:22;8.15;;;2.55;;
60014;SDS011;45867;52.480;6.056;2022-10-16T01:29:40;5.50;;;2.40;;
60014;SDS011;45867;52.480;6.056;2022-10-16T01:32:17;16.48;;;3.65;;
60014;SDS011;45867;52.480;6.056;2022-10-16T01:34:52;4.57;;;2.25;;
60014;SDS011;45867;52.480;6.056;2022-10-16T01:37:36;8.55;;;2.20;;
60014;SDS011;45867;52.480;6.056;2022-10-16T01:40:07;8.98;;;2.50;;
60014;SDS011;45867;52.480;6.056;2022-10-16T01:42:44;5.95;;;2.35;;
60014;SDS011;45867;52.480;6.056;2022-10-16T01:45:15;11.38;;;2.47;;
60014;SDS011;45867;52.480;6.056;2022-10-16T01:47:44;6.63;;;2.30;;
60014;SDS011;45867;52.480;6.056;2022-10-16T01:50:10;8.30;;;2.20;;
60014;SDS011;45867;52.480;6.056;2022-10-16T01:52:40;2.95;;;2.00;;
60014;SDS011;45867;52.480;6.056;2022-10-16T01:55:10;4.43;;;2.10;;
60014;SDS011;45867;52.480;6.056;2022-10-16T01:57:39;5.22;;;2.28;;
60014;SDS011;45867;52.480;6.056;2022-10-16T02:00:11;6.88;;;2.30;;
60014;SDS011;45867;52.480;6.056;2022-10-16T02:02:40;10.13;;;2.20;;
60014;SDS011;45867;52.480;6.056;2022-10-16T02:05:23;4.07;;;2.05;;
60014;SDS011;45867;52.480;6.056;2022-10-16T02:07:52;5.20;;;2.35;;
60014;SDS011;45867;52.480;6.056;2022-10-16T02:10:17;11.38;;;2.10;;
60014;SDS011;45867;52.480;6.056;2022-10-16T02:12:45;6.22;;;2.30;;
60014;SDS011;45867;52.480;6.056;2022-10-16T02:15:18;3.50;;;1.95;;
60014;SDS011;45867;52.480;6.056;2022-10-16T02:17:44;4.55;;;2.10;;
60014;SDS011;45867;52.480;6.056;2022-10-16T02:20:28;8.07;;;2.30;;
60014;SDS011;45867;52.480;6.056;2022-10-16T02:23:05;3.55;;;1.85;;
60014;SDS011;45867;52.480;6.056;2022-10-16T02:25:37;5.45;;;2.25;;
60014;SDS011;45867;52.480;6.056;2022-10-16T02:28:13;6.40;;;1.92;;
60014;SDS011;45867;52.480;6.056;2022-10-16T02:30:44;10.43;;;2.28;;
60014;SDS011;45867;52.480;6.056;2022-10-16T02:33:14;6.32;;;2.05;;
60014;SDS011;45867;52.480;6.056;2022-10-16T02:35:41;2.95;;;2.03;;
60014;SDS011;45867;52.480;6.056;2022-10-16T02:38:10;3.00;;;2.13;;
60014;SDS011;45867;52.480;6.056;2022-10-16T02:40:36;10.50;;;2.40;;
60014;SDS011;45867;52.480;6.056;2022-10-16T02:43:03;5.10;;;2.13;;
60014;SDS011;45867;52.480;6.056;2022-10-16T02:45:29;4.80;;;2.42;;
60014;SDS011;45867;52.480;6.056;2022-10-16T02:47:55;5.85;;;2.30;;
60014;SDS011;45867;52.480;6.056;2022-10-16T02:50:20;6.95;;;2.08;;
60014;SDS011;45867;52.480;6.056;2022-10-16T02:52:46;3.55;;;2.08;;
60014;SDS011;45867;52.480;6.056;2022-10-16T02:55:11;7.15;;;2.30;;
60014;SDS011;45867;52.480;6.056;2022-10-16T02:57:37;6.32;;;2.72;;
60014;SDS011;45867;52.480;6.056;2022-10-16T03:00:07;5.05;;;2.13;;
60014;SDS011;45867;52.480;6.056;2022-10-16T03:02:34;4.53;;;2.40;;
60014;SDS011;45867;52.480;6.056;2022-10-16T03:05:00;3.63;;;2.30;;
60014;SDS011;45867;52.480;6.056;2022-10-16T03:07:25;5.60;;;2.50;;
60014;SDS011;45867;52.480;6.056;2022-10-16T03:09:51;8.73;;;3.00;;
60014;SDS011;45867;52.480;6.056;2022-10-16T03:12:16;5.00;;;2.67;;
60014;SDS011;45867;52.480;6.056;2022-10-16T03:14:42;6.18;;;2.40;;
60014;SDS011;45867;52.480;6.056;2022-10-16T03:17:07;5.82;;;2.70;;
60014;SDS011;45867;52.480;6.056;2022-10-16T03:19:32;13.82;;;3.00;;
60014;SDS011;45867;52.480;6.056;2022-10-16T03:21:58;6.53;;;2.42;;
60014;SDS011;45867;52.480;6.056;2022-10-16T03:24:23;4.05;;;2.78;;
60014;SDS011;45867;52.480;6.056;2022-10-16T03:26:48;6.90;;;2.80;;
60014;SDS011;45867;52.480;6.056;2022-10-16T03:29:14;10.32;;;3.28;;
60014;SDS011;45867;52.480;6.056;2022-10-16T03:31:39;6.50;;;2.67;;
60014;SDS011;45867;52.480;6.056;2022-10-16T03:34:05;11.18;;;3.03;;
60014;SDS011;45867;52.480;6.056;2022-10-16T03:36:30;5.97;;;2.75;;
60014;SDS011;45867;52.480;6.056;2022-10-16T03:38:56;8.73;;;2.88;;
60014;SDS011;45867;52.480;6.056;2022-10-16T03:41:21;9.65;;;3.00;;
60014;SDS011;45867;52.480;6.056;2022-10-16T03:43:47;5.90;;;3.40;;
60014;SDS011;45867;52.480;6.056;2022-10-16T03:46:12;11.30;;;2.60;;
60014;SDS011;45867;52.480;6.056;2022-10-16T03:48:37;14.95;;;2.97;;
60014;SDS011;45867;52.480;6.056;2022-10-16T03:51:03;6.15;;;2.90;;
60014;SDS011;45867;52.480;6.056;2022-10-16T03:53:28;10.10;;;3.17;;
60014;SDS011;45867;52.480;6.056;2022-10-16T03:55:53;4.20;;;2.55;;
60014;SDS011;45867;52.480;6.056;2022-10-16T03:58:19;11.02;;;3.05;;
60014;SDS011;45867;52.480;6.056;2022-10-16T04:00:45;6.43;;;2.70;;
60014;SDS011;45867;52.480;6.056;2022-10-16T04:03:11;7.32;;;3.13;;
60014;SDS011;45867;52.480;6.056;2022-10-16T04:05:36;4.60;;;2.72;;
60014;SDS011;45867;52.480;6.056;2022-10-16T04:08:02;12.88;;;2.78;;
60014;SDS011;45867;52.480;6.056;2022-10-16T04:10:28;6.00;;;3.10;;
60014;SDS011;45867;52.480;6.056;2022-10-16T04:12:54;5.57;;;2.97;;
60014;SDS011;45867;52.480;6.056;2022-10-16T04:15:21;11.38;;;2.97;;
60014;SDS011;45867;52.480;6.056;2022-10-16T04:17:47;6.72;;;3.10;;
60014;SDS011;45867;52.480;6.056;2022-10-16T04:20:12;5.07;;;2.83;;
60014;SDS011;45867;52.480;6.056;2022-10-16T04:22:38;6.28;;;2.78;;
60014;SDS011;45867;52.480;6.056;2022-10-16T04:25:04;6.07;;;3.10;;
60014;SDS011;45867;52.480;6.056;2022-10-16T04:27:29;4.28;;;2.38;;
60014;SDS011;45867;52.480;6.056;2022-10-16T04:29:57;7.45;;;2.50;;
60014;SDS011;45867;52.480;6.056;2022-10-16T04:32:23;7.85;;;2.90;;
60014;SDS011;45867;52.480;6.056;2022-10-16T04:34:48;8.85;;;2.88;;
60014;SDS011;45867;52.480;6.056;2022-10-16T04:37:13;8.68;;;2.72;;
60014;SDS011;45867;52.480;6.056;2022-10-16T04:39:39;6.07;;;3.13;;
60014;SDS011;45867;52.480;6.056;2022-10-16T04:42:04;10.63;;;2.75;;
60014;SDS011;45867;52.480;6.056;2022-10-16T04:44:29;9.07;;;3.33;;
60014;SDS011;45867;52.480;6.056;2022-10-16T04:46:55;4.72;;;2.63;;
60014;SDS011;45867;52.480;6.056;2022-10-16T04:49:20;6.18;;;2.80;;
60014;SDS011;45867;52.480;6.056;2022-10-16T04:51:46;6.40;;;2.72;;
60014;SDS011;45867;52.480;6.056;2022-10-16T04:54:11;4.93;;;2.72;;
60014;SDS011;45867;52.480;6.056;2022-10-16T04:56:36;5.25;;;2.80;;
60014;SDS011;45867;52.480;6.056;2022-10-16T04:59:08;4.63;;;2.70;;
60014;SDS011;45867;52.480;6.056;2022-10-16T05:01:34;6.13;;;2.47;;
60014;SDS011;45867;52.480;6.056;2022-10-16T05:03:59;6.72;;;2.70;;
60014;SDS011;45867;52.480;6.056;2022-10-16T05:06:25;8.57;;;2.42;;
60014;SDS011;45867;52.480;6.056;2022-10-16T05:08:50;6.90;;;2.63;;
60014;SDS011;45867;52.480;6.056;2022-10-16T05:11:16;7.88;;;2.40;;
60014;SDS011;45867;52.480;6.056;2022-10-16T05:13:41;4.65;;;2.30;;
60014;SDS011;45867;52.480;6.056;2022-10-16T05:16:06;6.70;;;2.67;;
60014;SDS011;45867;52.480;6.056;2022-10-16T05:18:32;7.50;;;2.50;;
60014;SDS011;45867;52.480;6.056;2022-10-16T05:20:57;7.22;;;2.42;;
60014;SDS011;45867;52.480;6.056;2022-10-16T05:23:23;6.85;;;2.47;;
60014;SDS011;45867;52.480;6.056;2022-10-16T05:25:52;3.83;;;2.33;;
60014;SDS011;45867;52.480;6.056;2022-10-16T05:28:23;6.22;;;2.60;;
60014;SDS011;45867;52.480;6.056;2022-10-16T05:30:49;4.30;;;2.60;;
60014;SDS011;45867;52.480;6.056;2022-10-16T05:33:15;4.18;;;2.20;;
60014;SDS011;45867;52.480;6.056;2022-10-16T05:35:40;6.10;;;2.35;;
60014;SDS011;45867;52.480;6.056;2022-10-16T05:38:06;5.43;;;2.35;;
60014;SDS011;45867;52.480;6.056;2022-10-16T05:40:31;5.22;;;2.20;;
60014;SDS011;45867;52.480;6.056;2022-10-16T05:42:57;5.50;;;2.10;;
60014;SDS011;45867;52.480;6.056;2022-10-16T05:45:22;7.28;;;2.40;;
60014;SDS011;45867;52.480;6.056;2022-10-16T05:47:47;8.50;;;2.40;;
60014;SDS011;45867;52.480;6.056;2022-10-16T05:50:13;7.00;;;2.28;;
60014;SDS011;45867;52.480;6.056;2022-10-16T05:52:39;3.47;;;1.98;;
60014;SDS011;45867;52.480;6.056;2022-10-16T05:55:04;8.23;;;2.35;;
60014;SDS011;45867;52.480;6.056;2022-10-16T05:57:30;6.05;;;2.60;;
60014;SDS011;45867;52.480;6.056;2022-10-16T05:59:56;5.13;;;2.30;;
60014;SDS011;45867;52.480;6.056;2022-10-16T06:02:27;7.68;;;2.20;;
60014;SDS011;45867;52.480;6.056;2022-10-16T06:04:53;6.25;;;2.50;;
60014;SDS011;45867;52.480;6.056;2022-10-16T06:07:18;7.00;;;2.40;;
60014;SDS011;45867;52.480;6.056;2022-10-16T06:09:47;12.82;;;2.65;;
60014;SDS011;45867;52.480;6.056;2022-10-16T06:12:13;8.52;;;2.25;;
60014;SDS011;45867;52.480;6.056;2022-10-16T06:14:39;8.18;;;2.53;;
60014;SDS011;45867;52.480;6.056;2022-10-16T06:17:04;5.18;;;2.40;;
60014;SDS011;45867;52.480;6.056;2022-10-16T06:19:30;3.83;;;2.38;;
60014;SDS011;45867;52.480;6.056;2022-10-16T06:21:56;5.70;;;2.03;;
60014;SDS011;45867;52.480;6.056;2022-10-16T06:24:25;6.20;;;2.10;;
60014;SDS011;45867;52.480;6.056;2022-10-16T06:26:50;7.78;;;2.35;;
60014;SDS011;45867;52.480;6.056;2022-10-16T06:29:16;6.45;;;2.20;;
60014;SDS011;45867;52.480;6.056;2022-10-16T06:31:41;7.80;;;2.28;;
60014;SDS011;45867;52.480;6.056;2022-10-16T06:34:10;6.68;;;2.00;;
60014;SDS011;45867;52.480;6.056;2022-10-16T06:36:36;6.75;;;2.40;;
60014;SDS011;45867;52.480;6.056;2022-10-16T06:39:03;5.10;;;2.70;;
60014;SDS011;45867;52.480;6.056;2022-10-16T06:41:29;7.78;;;2.53;;
60014;SDS011;45867;52.480;6.056;2022-10-16T06:43:55;3.97;;;2.30;;
60014;SDS011;45867;52.480;6.056;2022-10-16T06:46:21;6.18;;;2.40;;
60014;SDS011;45867;52.480;6.056;2022-10-16T06:48:48;8.50;;;2.40;;
60014;SDS011;45867;52.480;6.056;2022-10-16T06:51:17;7.50;;;2.50;;
60014;SDS011;45867;52.480;6.056;2022-10-16T06:53:48;8.60;;;2.30;;
60014;SDS011;45867;52.480;6.056;2022-10-16T06:56:19;7.18;;;2.50;;
60014;SDS011;45867;52.480;6.056;2022-10-16T06:58:46;6.15;;;3.28;;
60014;SDS011;45867;52.480;6.056;2022-10-16T07:01:13;6.68;;;2.30;;
60014;SDS011;45867;52.480;6.056;2022-10-16T07:03:40;6.43;;;2.15;;
60014;SDS011;45867;52.480;6.056;2022-10-16T07:06:10;9.55;;;1.70;;
60014;SDS011;45867;52.480;6.056;2022-10-16T07:08:38;5.63;;;2.03;;
60014;SDS011;45867;52.480;6.056;2022-10-16T07:11:06;5.75;;;1.85;;
60014;SDS011;45867;52.480;6.056;2022-10-16T07:13:38;3.80;;;1.50;;
60014;SDS011;45867;52.480;6.056;2022-10-16T07:16:09;6.93;;;1.92;;
60014;SDS011;45867;52.480;6.056;2022-10-16T07:18:36;4.20;;;2.00;;
60014;SDS011;45867;52.480;6.056;2022-10-16T07:21:05;12.20;;;2.85;;
60014;SDS011;45867;52.480;6.056;2022-10-16T07:23:32;7.72;;;2.70;;
60014;SDS011;45867;52.480;6.056;2022-10-16T07:25:57;9.73;;;2.70;;
60014;SDS011;45867;52.480;6.056;2022-10-16T07:28:22;7.18;;;2.92;;
60014;SDS011;45867;52.480;6.056;2022-10-16T07:30:48;5.80;;;2.78;;
60014;SDS011;45867;52.480;6.056;2022-10-16T07:33:13;8.68;;;3.28;;
60014;SDS011;45867;52.480;6.056;2022-10-16T07:35:49;7.82;;;3.10;;
60014;SDS011;45867;52.480;6.056;2022-10-16T07:38:19;7.13;;;3.22;;
60014;SDS011;45867;52.480;6.056;2022-10-16T07:40:45;7.85;;;3.67;;
60014;SDS011;45867;52.480;6.056;2022-10-16T07:43:11;11.05;;;3.90;;
60014;SDS011;45867;52.480;6.056;2022-10-16T07:45:37;14.35;;;4.00;;
60014;SDS011;45867;52.480;6.056;2022-10-16T07:48:10;8.68;;;3.33;;
60014;SDS011;45867;52.480;6.056;2022-10-16T07:50:36;9.23;;;3.40;;
60014;SDS011;45867;52.480;6.056;2022-10-16T07:53:01;9.43;;;3.60;;
60014;SDS011;45867;52.480;6.056;2022-10-16T07:55:26;10.02;;;3.28;;
60014;SDS011;45867;52.480;6.056;2022-10-16T07:57:52;8.80;;;3.13;;
60014;SDS011;45867;52.480;6.056;2022-10-16T08:00:17;9.95;;;3.28;;
60014;SDS011;45867;52.480;6.056;2022-10-16T08:02:43;7.60;;;2.92;;
60014;SDS011;45867;52.480;6.056;2022-10-16T08:05:08;7.10;;;2.78;;
60014;SDS011;45867;52.480;6.056;2022-10-16T08:07:34;8.75;;;3.20;;
60014;SDS011;45867;52.480;6.056;2022-10-16T08:09:59;8.05;;;2.85;;
60014;SDS011;45867;52.480;6.056;2022-10-16T08:12:25;7.07;;;2.70;;
60014;SDS011;45867;52.480;6.056;2022-10-16T08:14:51;6.43;;;2.58;;
60014;SDS011;45867;52.480;6.056;2022-10-16T08:17:16;4.72;;;2.50;;
60014;SDS011;45867;52.480;6.056;2022-10-16T08:19:45;9.90;;;2.75;;
60014;SDS011;45867;52.480;6.056;2022-10-16T08:22:12;10.95;;;2.42;;
60014;SDS011;45867;52.480;6.056;2022-10-16T08:24:37;6.10;;;2.22;;
60014;SDS011;45867;52.480;6.056;2022-10-16T08:27:03;5.18;;;2.42;;
60014;SDS011;45867;52.480;6.056;2022-10-16T08:29:29;11.93;;;2.20;;
60014;SDS011;45867;52.480;6.056;2022-10-16T08:31:54;6.03;;;2.45;;
60014;SDS011;45867;52.480;6.056;2022-10-16T08:34:20;8.43;;;2.75;;
60014;SDS011;45867;52.480;6.056;2022-10-16T08:36:45;5.68;;;2.38;;
60014;SDS011;45867;52.480;6.056;2022-10-16T08:39:10;4.63;;;2.30;;
60014;SDS011;45867;52.480;6.056;2022-10-16T08:47:17;6.30;;;2.42;;
60014;SDS011;45867;52.480;6.056;2022-10-16T08:49:55;13.10;;;2.13;;
60014;SDS011;45867;52.480;6.056;2022-10-16T08:52:23;6.90;;;2.25;;
60014;SDS011;45867;52.480;6.056;2022-10-16T08:54:56;8.27;;;2.10;;
60014;SDS011;45867;52.480;6.056;2022-10-16T08:57:22;8.95;;;2.42;;
60014;SDS011;45867;52.480;6.056;2022-10-16T08:59:51;5.82;;;2.35;;
60014;SDS011;45867;52.480;6.056;2022-10-16T09:13:53;7.50;;;2.30;;
60014;SDS011;45867;52.480;6.056;2022-10-16T09:16:49;10.32;;;2.10;;
60014;SDS011;45867;52.480;6.056;2022-10-16T09:19:25;8.65;;;2.15;;
60014;SDS011;45867;52.480;6.056;2022-10-16T09:21:59;8.07;;;2.40;;
60014;SDS011;45867;52.480;6.056;2022-10-16T09:24:34;9.57;;;2.40;;
60014;SDS011;45867;52.480;6.056;2022-10-16T09:26:59;6.28;;;2.33;;
60014;SDS011;45867;52.480;6.056;2022-10-16T09:29:24;9.43;;;2.15;;
60014;SDS011;45867;52.480;6.056;2022-10-16T09:31:50;14.57;;;2.45;;
60014;SDS011;45867;52.480;6.056;2022-10-16T09:34:30;10.95;;;2.20;;
60014;SDS011;45867;52.480;6.056;2022-10-16T09:36:59;10.90;;;2.20;;
60014;SDS011;45867;52.480;6.056;2022-10-16T09:39:28;11.90;;;2.28;;
60014;SDS011;45867;52.480;6.056;2022-10-16T09:41:53;16.30;;;2.10;;
60014;SDS011;45867;52.480;6.056;2022-10-16T09:44:24;16.65;;;3.10;;
60014;SDS011;45867;52.480;6.056;2022-10-16T09:47:03;10.68;;;2.38;;
60014;SDS011;45867;52.480;6.056;2022-10-16T09:49:29;12.02;;;2.25;;
60014;SDS011;45867;52.480;6.056;2022-10-16T09:54:56;16.25;;;2.92;;
60014;SDS011;45867;52.480;6.056;2022-10-16T09:57:24;13.80;;;2.58;;
60014;SDS011;45867;52.480;6.056;2022-10-16T09:59:53;10.10;;;2.47;;
60014;SDS011;45867;52.480;6.056;2022-10-16T10:04:56;11.82;;;2.92;;
60014;SDS011;45867;52.480;6.056;2022-10-16T10:07:26;12.02;;;2.45;;
60014;SDS011;45867;52.480;6.056;2022-10-16T10:10:01;13.50;;;2.40;;
60014;SDS011;45867;52.480;6.056;2022-10-16T10:12:29;14.65;;;2.70;;
60014;SDS011;45867;52.480;6.056;2022-10-16T10:14:58;6.88;;;1.90;;
60014;SDS011;45867;52.480;6.056;2022-10-16T10:17:51;10.43;;;2.28;;
60014;SDS011;45867;52.480;6.056;2022-10-16T10:22:50;8.68;;;2.10;;
60014;SDS011;45867;52.480;6.056;2022-10-16T10:25:21;21.00;;;2.70;;
60014;SDS011;45867;52.480;6.056;2022-10-16T10:41:53;9.20;;;2.03;;
60014;SDS011;45867;52.480;6.056;2022-10-16T10:44:26;16.30;;;2.55;;
60014;SDS011;45867;52.480;6.056;2022-10-16T10:47:16;14.68;;;2.47;;
60014;SDS011;45867;52.480;6.056;2022-10-16T10:52:34;11.25;;;2.47;;
60014;SDS011;45867;52.480;6.056;2022-10-16T11:01:08;12.93;;;2.38;;
60014;SDS011;45867;52.480;6.056;2022-10-16T11:06:24;14.80;;;2.58;;
60014;SDS011;45867;52.480;6.056;2022-10-16T11:08:53;10.70;;;2.33;;
60014;SDS011;45867;52.480;6.056;2022-10-16T11:11:41;14.15;;;2.20;;
60014;SDS011;45867;52.480;6.056;2022-10-16T11:14:28;9.98;;;2.08;;
60014;SDS011;45867;52.480;6.056;2022-10-16T11:17:11;7.43;;;2.10;;
60014;SDS011;45867;52.480;6.056;2022-10-16T11:22:13;11.18;;;2.45;;
60014;SDS011;45867;52.480;6.056;2022-10-16T11:28:11;8.03;;;1.93;;
60014;SDS011;45867;52.480;6.056;2022-10-16T11:30:21;12.82;;;2.08;;
60014;SDS011;45867;52.480;6.056;2022-10-16T11:35:41;6.30;;;1.67;;
60014;SDS011;45867;52.480;6.056;2022-10-16T11:38:15;8.40;;;2.10;;
60014;SDS011;45867;52.480;6.056;2022-10-16T11:40:51;17.13;;;2.20;;
60014;SDS011;45867;52.480;6.056;2022-10-16T11:43:22;13.13;;;2.72;;
60014;SDS011;45867;52.480;6.056;2022-10-16T11:45:54;12.07;;;2.42;;
60014;SDS011;45867;52.480;6.056;2022-10-16T11:48:27;8.80;;;2.00;;
60014;SDS011;45867;52.480;6.056;2022-10-16T11:51:00;10.30;;;2.17;;
60014;SDS011;45867;52.480;6.056;2022-10-16T11:56:19;10.15;;;2.42;;
60014;SDS011;45867;52.480;6.056;2022-10-16T11:58:56;8.77;;;2.43;;
60014;SDS011;45867;52.480;6.056;2022-10-16T12:01:28;14.57;;;1.80;;
60014;SDS011;45867;52.480;6.056;2022-10-16T12:06:47;10.52;;;2.53;;
60014;SDS011;45867;52.480;6.056;2022-10-16T12:09:29;11.98;;;2.42;;
60014;SDS011;45867;52.480;6.056;2022-10-16T12:11:56;12.48;;;2.63;;
60014;SDS011;45867;52.480;6.056;2022-10-16T12:16:57;10.30;;;2.20;;
60014;SDS011;45867;52.480;6.056;2022-10-16T12:19:25;11.82;;;3.03;;
60014;SDS011;45867;52.480;6.056;2022-10-16T12:21:54;11.25;;;1.92;;
60014;SDS011;45867;52.480;6.056;2022-10-16T12:26:56;13.25;;;1.90;;
60014;SDS011;45867;52.480;6.056;2022-10-16T12:29:32;10.50;;;2.05;;
60014;SDS011;45867;52.480;6.056;2022-10-16T12:31:57;9.15;;;2.50;;
60014;SDS011;45867;52.480;6.056;2022-10-16T12:36:53;9.32;;;2.05;;
60014;SDS011;45867;52.480;6.056;2022-10-16T12:39:22;15.73;;;2.42;;
60014;SDS011;45867;52.480;6.056;2022-10-16T12:41:59;6.32;;;1.95;;
60014;SDS011;45867;52.480;6.056;2022-10-16T12:44:26;8.27;;;2.08;;
60014;SDS011;45867;52.480;6.056;2022-10-16T12:46:57;15.65;;;2.38;;
60014;SDS011;45867;52.480;6.056;2022-10-16T12:49:29;9.55;;;2.40;;
60014;SDS011;45867;52.480;6.056;2022-10-16T12:52:03;12.32;;;2.00;;
60014;SDS011;45867;52.480;6.056;2022-10-16T13:03:00;9.70;;;2.70;;
60014;SDS011;45867;52.480;6.056;2022-10-16T13:11:11;12.70;;;2.40;;
60014;SDS011;45867;52.480;6.056;2022-10-16T13:16:54;18.60;;;2.60;;
60014;SDS011;45867;52.480;6.056;2022-10-16T13:19:35;23.48;;;2.60;;
60014;SDS011;45867;52.480;6.056;2022-10-16T13:22:30;9.25;;;1.85;;
60014;SDS011;45867;52.480;6.056;2022-10-16T13:25:19;12.90;;;2.20;;
60014;SDS011;45867;52.480;6.056;2022-10-16T13:27:56;24.50;;;2.35;;
60014;SDS011;45867;52.480;6.056;2022-10-16T13:30:26;12.88;;;2.40;;
60014;SDS011;45867;52.480;6.056;2022-10-16T13:32:58;8.55;;;2.30;;
60014;SDS011;45867;52.480;6.056;2022-10-16T13:35:28;10.25;;;2.33;;
60014;SDS011;45867;52.480;6.056;2022-10-16T13:38:03;10.13;;;2.10;;
60014;SDS011;45867;52.480;6.056;2022-10-16T13:40:47;15.35;;;2.15;;
60014;SDS011;45867;52.480;6.056;2022-10-16T13:43:18;16.25;;;2.40;;
60014;SDS011;45867;52.480;6.056;2022-10-16T13:45:56;7.65;;;2.10;;
60014;SDS011;45867;52.480;6.056;2022-10-16T13:48:23;5.97;;;1.85;;
60014;SDS011;45867;52.480;6.056;2022-10-16T13:51:02;10.35;;;3.30;;
60014;SDS011;45867;52.480;6.056;2022-10-16T13:53:32;7.40;;;2.10;;
60014;SDS011;45867;52.480;6.056;2022-10-16T13:55:59;11.55;;;2.22;;
60014;SDS011;45867;52.480;6.056;2022-10-16T13:58:26;9.73;;;2.30;;
60014;SDS011;45867;52.480;6.056;2022-10-16T14:00:56;8.20;;;1.83;;
60014;SDS011;45867;52.480;6.056;2022-10-16T14:03:22;10.63;;;2.05;;
60014;SDS011;45867;52.480;6.056;2022-10-16T14:05:50;12.10;;;2.10;;
60014;SDS011;45867;52.480;6.056;2022-10-16T14:08:24;9.52;;;2.03;;
60014;SDS011;45867;52.480;6.056;2022-10-16T14:10:56;6.10;;;2.20;;
60014;SDS011;45867;52.480;6.056;2022-10-16T14:14:05;15.30;;;2.40;;
60014;SDS011;45867;52.480;6.056;2022-10-16T14:16:16;12.80;;;2.05;;
60014;SDS011;45867;52.480;6.056;2022-10-16T14:18:52;7.10;;;1.83;;
60014;SDS011;45867;52.480;6.056;2022-10-16T14:21:22;9.95;;;2.65;;
60014;SDS011;45867;52.480;6.056;2022-10-16T14:23:48;8.50;;;2.10;;
60014;SDS011;45867;52.480;6.056;2022-10-16T14:26:14;13.20;;;2.88;;
60014;SDS011;45867;52.480;6.056;2022-10-16T14:28:42;11.82;;;2.13;;
60014;SDS011;45867;52.480;6.056;2022-10-16T14:31:28;9.85;;;2.22;;
60014;SDS011;45867;52.480;6.056;2022-10-16T14:33:55;8.82;;;2.00;;
60014;SDS011;45867;52.480;6.056;2022-10-16T14:36:21;9.90;;;2.20;;
60014;SDS011;45867;52.480;6.056;2022-10-16T14:41:24;11.02;;;1.90;;
60014;SDS011;45867;52.480;6.056;2022-10-16T14:43:51;15.35;;;2.40;;
60014;SDS011;45867;52.480;6.056;2022-10-16T14:46:21;13.27;;;2.50;;
60014;SDS011;45867;52.480;6.056;2022-10-16T14:48:54;16.63;;;2.80;;
60014;SDS011;45867;52.480;6.056;2022-10-16T14:53:59;9.85;;;2.92;;
60014;SDS011;45867;52.480;6.056;2022-10-16T14:56:30;10.82;;;2.90;;
60014;SDS011;45867;52.480;6.056;2022-10-16T14:59:00;16.42;;;3.13;;
60014;SDS011;45867;52.480;6.056;2022-10-16T15:01:27;16.52;;;2.70;;
60014;SDS011;45867;52.480;6.056;2022-10-16T15:03:52;16.45;;;4.50;;
60014;SDS011;45867;52.480;6.056;2022-10-16T15:06:19;21.50;;;4.18;;
60014;SDS011;45867;52.480;6.056;2022-10-16T15:08:46;9.90;;;2.58;;
60014;SDS011;45867;52.480;6.056;2022-10-16T15:11:12;9.82;;;2.75;;
60014;SDS011;45867;52.480;6.056;2022-10-16T15:13:40;7.15;;;2.15;;
60014;SDS011;45867;52.480;6.056;2022-10-16T15:16:13;12.70;;;2.13;;
60014;SDS011;45867;52.480;6.056;2022-10-16T15:18:41;11.13;;;1.90;;
60014;SDS011;45867;52.480;6.056;2022-10-16T15:21:07;10.68;;;2.28;;
60014;SDS011;45867;52.480;6.056;2022-10-16T15:23:34;13.20;;;2.85;;
60014;SDS011;45867;52.480;6.056;2022-10-16T15:25:59;9.50;;;2.67;;
60014;SDS011;45867;52.480;6.056;2022-10-16T15:28:25;11.90;;;3.03;;
60014;SDS011;45867;52.480;6.056;2022-10-16T15:30:54;10.70;;;2.55;;
60014;SDS011;45867;52.480;6.056;2022-10-16T15:33:27;10.57;;;2.50;;
60014;SDS011;45867;52.480;6.056;2022-10-16T15:38:20;10.18;;;3.03;;
60014;SDS011;45867;52.480;6.056;2022-10-16T15:40:47;14.70;;;2.70;;
60014;SDS011;45867;52.480;6.056;2022-10-16T15:43:13;14.52;;;2.50;;
60014;SDS011;45867;52.480;6.056;2022-10-16T15:45:39;14.07;;;2.80;;
60014;SDS011;45867;52.480;6.056;2022-10-16T15:48:05;14.98;;;2.50;;
60014;SDS011;45867;52.480;6.056;2022-10-16T15:50:30;8.65;;;3.10;;
60014;SDS011;45867;52.480;6.056;2022-10-16T15:52:57;12.30;;;4.47;;
60014;SDS011;45867;52.480;6.056;2022-10-16T15:55:22;11.23;;;3.20;;
60014;SDS011;45867;52.480;6.056;2022-10-16T15:57:48;10.27;;;3.80;;
60014;SDS011;45867;52.480;6.056;2022-10-16T16:00:18;13.73;;;3.50;;
60014;SDS011;45867;52.480;6.056;2022-10-16T16:02:49;9.38;;;3.10;;
60014;SDS011;45867;52.480;6.056;2022-10-16T16:05:16;12.25;;;2.97;;
60014;SDS011;45867;52.480;6.056;2022-10-16T16:07:50;11.20;;;3.45;;
60014;SDS011;45867;52.480;6.056;2022-10-16T16:10:17;6.82;;;3.05;;
60014;SDS011;45867;52.480;6.056;2022-10-16T16:12:42;11.77;;;3.33;;
60014;SDS011;45867;52.480;6.056;2022-10-16T16:15:10;13.50;;;3.13;;
60014;SDS011;45867;52.480;6.056;2022-10-16T16:17:35;9.20;;;3.17;;
60014;SDS011;45867;52.480;6.056;2022-10-16T16:20:13;14.68;;;3.33;;
60014;SDS011;45867;52.480;6.056;2022-10-16T16:22:38;14.85;;;3.92;;
60014;SDS011;45867;52.480;6.056;2022-10-16T16:25:04;11.43;;;3.65;;
60014;SDS011;45867;52.480;6.056;2022-10-16T16:27:29;13.32;;;4.45;;
60014;SDS011;45867;52.480;6.056;2022-10-16T16:29:58;13.43;;;4.55;;
60014;SDS011;45867;52.480;6.056;2022-10-16T16:32:24;16.27;;;5.75;;
60014;SDS011;45867;52.480;6.056;2022-10-16T16:34:50;16.05;;;5.65;;
60014;SDS011;45867;52.480;6.056;2022-10-16T16:37:15;16.15;;;5.47;;
60014;SDS011;45867;52.480;6.056;2022-10-16T16:39:41;13.50;;;5.18;;
60014;SDS011;45867;52.480;6.056;2022-10-16T16:42:06;16.88;;;6.10;;
60014;SDS011;45867;52.480;6.056;2022-10-16T16:44:32;19.48;;;6.32;;